Have a Safe July 4th! 

Flight Track Log - Related Links

Times and Time Zones

All times are in EDT time to prevent confusion due to time zone crossing. See the SWA1865 flight status page for this flight to view local times or setup timezone preferences in your user account.

Time Position Orientation Groundspeed Altitude Reporting Facility
EDT Latitude Longitude Course Direction KTS MPH feet Rate Location/Type
Sun 10:06:29 AM 39.1150 -76.6536 144° Southeast 102 117 6,700  Level Washington Center
Sun 10:07:30 AM 39.1264 -76.5494 82° East 191 220 8,800 1,967 Climbing Washington Center
Sun 10:08:31 AM 39.1333 -76.4372 85° East 271 312 10,700 2,281 Climbing Washington Center
Sun 10:09:31 AM 39.1447 -76.3089 83° East 318 366 13,400 2,746 Climbing Washington Center
Sun 10:10:29 AM 39.1600 -76.1564 83° East 374 430 16,100 2,441 Climbing Washington Center
Sun 10:11:29 AM 39.1772 -76.0172 81° East 391 450 18,200 2,083 Climbing Washington Center
Sun 10:12:30 AM 39.2153 -75.8808 70° East 391 450 20,300 2,033 Climbing Washington Center
Sun 10:13:30 AM 39.2947 -75.7739 46° Northeast 392 451 22,300 1,736 Climbing Washington Center
Sun 10:14:31 AM 39.3803 -75.6722 43° Northeast 405 466 23,800 1,664 Climbing Washington Center
Sun 10:15:29 AM 39.4697 -75.5592 44° Northeast 416 479 25,600 1,729 Climbing Washington Center
Sun 10:16:29 AM 39.5508 -75.4408 48° Northeast 429 494 27,200 1,350 Climbing Washington Center
Sun 10:17:29 AM 39.6383 -75.3167 48° Northeast 444 511 28,300 1,091 Climbing Washington Center
Sun 10:18:30 AM 39.7253 -75.1922 48° Northeast 451 519 29,400 1,143 Climbing Washington Center
Sun 10:19:56 AM 39.8411 -75.0208 49° Northeast 471 542 31,100 1,233 Climbing New York Center
Sun 10:20:56 AM 39.9331 -74.8911 47° Northeast 478 550 32,400 1,322 Climbing New York Center
Sun 10:21:54 AM 40.0450 -74.7947 33° Northeast 476 548 33,700 1,311 Climbing New York Center
Sun 10:22:55 AM 40.1631 -74.7528 15° North 434 499 35,000 634 Climbing New York Center
Sun 10:23:57 AM 40.2833 -74.7078 16° North 434 499 35,000  Level New York Center
Sun 10:24:54 AM 40.4078 -74.6658 14° North 445 512 35,000  Level New York Center
Sun 10:25:55 AM 40.5300 -74.6211 16° North 451 519 35,000  Level New York Center
Sun 10:26:55 AM 40.6544 -74.5761 15° North 461 531 35,000  Level New York Center
Sun 10:27:54 AM 40.7789 -74.5308 15° North 461 531 35,000  Level New York Center
Sun 10:29:52 AM 41.0281 -74.4431 15° North 481 554 35,000  Level Boston Center
Sun 10:30:52 AM 41.1517 -74.3975 16° North 475 547 35,000  Level Boston Center
Sun 10:31:53 AM 41.2756 -74.3514 16° North 475 547 35,000  Level Boston Center
Sun 10:32:54 AM 41.4033 -74.3053 15° North 465 535 35,000  Level Boston Center
Sun 10:33:54 AM 41.5311 -74.2619 14° North 460 529 35,000 -397 Level Boston Center
Sun 10:34:55 AM 41.6550 -74.2128 17° North 460 529 34,200 -864 Descending Boston Center
Sun 10:35:52 AM 41.7828 -74.1661 15° North 460 529 33,300 -1,026 Descending Boston Center
Sun 10:36:52 AM 41.9169 -74.1225 14° North 453 521 32,200 -942 Descending Boston Center
Sun 10:37:53 AM 42.0225 -74.0161 37° Northeast 459 528 31,400 -836 Descending Boston Center
Sun 10:38:54 AM 42.0936 -73.8558 59° Northeast 457 526 30,500 -843 Descending Boston Center
Sun 10:39:54 AM 42.1533 -73.7256 58° Northeast 475 547 29,700 -942 Descending Boston Center
Sun 10:40:55 AM 42.2367 -73.5364 59° Northeast 501 577 28,600 -1,059 Descending Boston Center
Sun 10:41:53 AM 42.3089 -73.3806 58° Northeast 501 577 27,600 -1,017 Descending Boston Center
Sun 10:42:53 AM 42.3811 -73.2242 58° Northeast 489 563 26,600 -1,008 Descending Boston Center
Sun 10:43:52 AM 42.4508 -73.0647 59° Northeast 489 563 25,600 -1,000 Descending Boston Center
Sun 10:44:53 AM 42.5203 -72.9106 59° Northeast 489 563 24,600 -1,672 Descending Boston Center
Sun 10:45:54 AM 42.5875 -72.7558 59° Northeast 482 555 22,200 -2,628 Descending Boston Center
Sun 10:46:54 AM 42.6628 -72.6039 56° Northeast 449 517 19,300 -2,644 Descending Boston Center
Sun 10:47:52 AM 42.7150 -72.4739 61° Northeast 437 503 17,000 -2,521 Descending Boston Center
Sun 10:48:53 AM 42.7756 -72.3411 58° Northeast 422 486 14,300 -2,876 Descending Boston Center
Sun 10:49:53 AM 42.8003 -72.1797 78° East 395 455 11,200 -2,033 Descending Boston Center
Sun 10:50:54 AM 42.8122 -72.0411 83° East 382 440 10,200 -1,041 Descending Boston Center
Sun 10:51:54 AM 42.8161 -71.9250 87° East 333 383 9,100 -1,412 Descending Boston Center
Sun 10:52:53 AM 42.8092 -71.8117 95° East 307 353 7,400 -1,850 Descending Boston Center
Sun 10:53:54 AM 42.8003 -71.7014 96° East 292 336 5,400 -1,785 Descending Boston Center
Sun 10:54:54 AM 42.7956 -71.6083 94° East 286 329 3,800 -1,438 Descending Boston Center
Sun 10:55:55 AM 42.7883 -71.4981 95° East 269 310 2,500 -661 Descending Boston Center
Sun 10:56:52 AM 42.7917 -71.4186 87° East 243 280 2,500  Level Boston Center
Sun 10:57:52 AM 42.8331 -71.3783 36° Northeast 195 224 2,500 -545 Level Boston Center
Sun 10:58:53 AM 42.8686 -71.3975 338° Northwest 135 155 1,400 -1,000 Descending Boston Center
Sun 10:59:34 AM 42.9000 -71.4167 336° Northwest 142 163 800 2,519 Descending KA90
Sun 11:01:54 AM 42.9775 -71.4583 339° North 145 167 9,000 2,310 Climbing Boston Center
Sun 11:03:07 AM 43.0217 -71.4831 338° Northwest 145 167 9,000  Level Boston Center
Sun 11:04:04 AM 43.0592 -71.5022 340° North 145 167 9,000  Level Boston Center
Sun 11:06:00 AM 42.9328 -71.4358 166° South  Level Estimated
Sun 11:13:00 AM 42.9328 -71.4358 166° South  Level Estimated
Sun 11:14:00 AM 42.9328 -71.4358 166° South  Level Estimated
Sun 11:15:00 AM 42.9328 -71.4358 166° South  Level Estimated
Sun 11:16:00 AM 42.9328 -71.4358 166° South  Level Estimated

Login

Don't have an account? Register now (free) for customized features, flight alerts, and more!